sensor_id;sensor_type;location;lat;lon;timestamp;P1;durP1;ratioP1;P2;durP2;ratioP2
15764;SDS011;7983;50.744;7.086;2023-01-29T00:01:31;29.10;;;18.23;;
15764;SDS011;7983;50.744;7.086;2023-01-29T00:03:59;27.67;;;17.17;;
15764;SDS011;7983;50.744;7.086;2023-01-29T00:06:25;25.27;;;17.57;;
15764;SDS011;7983;50.744;7.086;2023-01-29T00:08:50;22.97;;;15.23;;
15764;SDS011;7983;50.744;7.086;2023-01-29T00:11:16;24.23;;;15.10;;
15764;SDS011;7983;50.744;7.086;2023-01-29T00:13:42;21.63;;;14.53;;
15764;SDS011;7983;50.744;7.086;2023-01-29T00:16:08;21.53;;;14.37;;
15764;SDS011;7983;50.744;7.086;2023-01-29T00:18:41;21.80;;;14.30;;
15764;SDS011;7983;50.744;7.086;2023-01-29T00:21:14;24.13;;;15.57;;
15764;SDS011;7983;50.744;7.086;2023-01-29T00:23:43;24.97;;;16.30;;
15764;SDS011;7983;50.744;7.086;2023-01-29T00:26:11;21.13;;;13.97;;
15764;SDS011;7983;50.744;7.086;2023-01-29T00:28:39;25.60;;;15.63;;
15764;SDS011;7983;50.744;7.086;2023-01-29T00:31:13;21.50;;;14.87;;
15764;SDS011;7983;50.744;7.086;2023-01-29T00:33:44;23.10;;;15.97;;
15764;SDS011;7983;50.744;7.086;2023-01-29T00:36:12;20.33;;;14.37;;
15764;SDS011;7983;50.744;7.086;2023-01-29T00:38:44;20.93;;;14.07;;
15764;SDS011;7983;50.744;7.086;2023-01-29T00:41:20;19.47;;;13.10;;
15764;SDS011;7983;50.744;7.086;2023-01-29T00:44:05;21.33;;;13.67;;
15764;SDS011;7983;50.744;7.086;2023-01-29T00:46:49;19.67;;;13.03;;
15764;SDS011;7983;50.744;7.086;2023-01-29T00:49:15;21.20;;;13.63;;
15764;SDS011;7983;50.744;7.086;2023-01-29T00:51:43;21.50;;;14.30;;
15764;SDS011;7983;50.744;7.086;2023-01-29T00:54:29;21.17;;;14.20;;
15764;SDS011;7983;50.744;7.086;2023-01-29T00:56:54;19.10;;;13.27;;
15764;SDS011;7983;50.744;7.086;2023-01-29T00:59:22;18.17;;;12.77;;
15764;SDS011;7983;50.744;7.086;2023-01-29T01:01:48;21.97;;;13.90;;
15764;SDS011;7983;50.744;7.086;2023-01-29T01:04:32;19.70;;;13.83;;
15764;SDS011;7983;50.744;7.086;2023-01-29T01:06:59;20.57;;;14.20;;
15764;SDS011;7983;50.744;7.086;2023-01-29T01:09:27;20.87;;;13.40;;
15764;SDS011;7983;50.744;7.086;2023-01-29T01:12:11;17.90;;;11.67;;
15764;SDS011;7983;50.744;7.086;2023-01-29T01:14:37;16.93;;;11.93;;
15764;SDS011;7983;50.744;7.086;2023-01-29T01:17:02;19.43;;;11.97;;
15764;SDS011;7983;50.744;7.086;2023-01-29T01:19:32;17.20;;;11.83;;
15764;SDS011;7983;50.744;7.086;2023-01-29T01:22:00;21.27;;;13.57;;
15764;SDS011;7983;50.744;7.086;2023-01-29T01:24:29;18.90;;;13.13;;
15764;SDS011;7983;50.744;7.086;2023-01-29T01:26:54;20.50;;;13.70;;
15764;SDS011;7983;50.744;7.086;2023-01-29T01:29:22;19.70;;;13.23;;
15764;SDS011;7983;50.744;7.086;2023-01-29T01:31:48;19.43;;;13.27;;
15764;SDS011;7983;50.744;7.086;2023-01-29T01:34:16;17.67;;;11.83;;
15764;SDS011;7983;50.744;7.086;2023-01-29T01:36:42;17.80;;;12.47;;
15764;SDS011;7983;50.744;7.086;2023-01-29T01:39:07;20.13;;;13.57;;
15764;SDS011;7983;50.744;7.086;2023-01-29T01:41:33;18.77;;;12.50;;
15764;SDS011;7983;50.744;7.086;2023-01-29T01:44:00;17.20;;;11.53;;
15764;SDS011;7983;50.744;7.086;2023-01-29T01:46:34;17.53;;;11.30;;
15764;SDS011;7983;50.744;7.086;2023-01-29T01:51:32;16.63;;;11.30;;
15764;SDS011;7983;50.744;7.086;2023-01-29T01:56:32;17.37;;;12.50;;
15764;SDS011;7983;50.744;7.086;2023-01-29T01:59:07;18.67;;;12.00;;
15764;SDS011;7983;50.744;7.086;2023-01-29T02:01:39;18.73;;;12.83;;
15764;SDS011;7983;50.744;7.086;2023-01-29T02:04:14;16.93;;;12.10;;
15764;SDS011;7983;50.744;7.086;2023-01-29T02:07:03;18.43;;;13.20;;
15764;SDS011;7983;50.744;7.086;2023-01-29T02:09:59;18.17;;;12.80;;
15764;SDS011;7983;50.744;7.086;2023-01-29T02:12:33;18.30;;;12.70;;
15764;SDS011;7983;50.744;7.086;2023-01-29T02:15:00;19.97;;;13.33;;
15764;SDS011;7983;50.744;7.086;2023-01-29T02:17:27;17.10;;;12.07;;
15764;SDS011;7983;50.744;7.086;2023-01-29T02:20:11;16.43;;;11.57;;
15764;SDS011;7983;50.744;7.086;2023-01-29T02:33:47;18.00;;;12.40;;
15764;SDS011;7983;50.744;7.086;2023-01-29T02:36:27;18.80;;;12.57;;
15764;SDS011;7983;50.744;7.086;2023-01-29T02:44:55;18.60;;;12.90;;
15764;SDS011;7983;50.744;7.086;2023-01-29T02:47:53;18.03;;;12.20;;
15764;SDS011;7983;50.744;7.086;2023-01-29T02:55:47;18.37;;;11.47;;
15764;SDS011;7983;50.744;7.086;2023-01-29T03:01:21;14.77;;;10.50;;
15764;SDS011;7983;50.744;7.086;2023-01-29T03:03:58;16.73;;;10.73;;
15764;SDS011;7983;50.744;7.086;2023-01-29T03:06:32;19.00;;;12.83;;
15764;SDS011;7983;50.744;7.086;2023-01-29T03:09:36;20.23;;;13.33;;
15764;SDS011;7983;50.744;7.086;2023-01-29T03:11:57;19.30;;;13.33;;
15764;SDS011;7983;50.744;7.086;2023-01-29T03:14:42;19.07;;;13.03;;
15764;SDS011;7983;50.744;7.086;2023-01-29T03:17:32;21.37;;;13.43;;
15764;SDS011;7983;50.744;7.086;2023-01-29T03:20:04;18.73;;;12.40;;
15764;SDS011;7983;50.744;7.086;2023-01-29T03:22:37;19.67;;;12.23;;
15764;SDS011;7983;50.744;7.086;2023-01-29T03:25:08;18.33;;;11.87;;
15764;SDS011;7983;50.744;7.086;2023-01-29T03:27:57;15.73;;;11.27;;
15764;SDS011;7983;50.744;7.086;2023-01-29T03:30:52;17.10;;;11.50;;
15764;SDS011;7983;50.744;7.086;2023-01-29T03:33:39;15.13;;;10.37;;
15764;SDS011;7983;50.744;7.086;2023-01-29T03:39:02;14.27;;;9.90;;
15764;SDS011;7983;50.744;7.086;2023-01-29T03:41:33;14.80;;;10.13;;
15764;SDS011;7983;50.744;7.086;2023-01-29T03:49:36;12.70;;;8.90;;
15764;SDS011;7983;50.744;7.086;2023-01-29T03:52:14;12.53;;;8.53;;
15764;SDS011;7983;50.744;7.086;2023-01-29T04:00:05;11.47;;;7.83;;
15764;SDS011;7983;50.744;7.086;2023-01-29T04:02:54;10.30;;;7.70;;
15764;SDS011;7983;50.744;7.086;2023-01-29T04:05:29;11.20;;;7.60;;
15764;SDS011;7983;50.744;7.086;2023-01-29T04:08:11;11.67;;;8.40;;
15764;SDS011;7983;50.744;7.086;2023-01-29T04:10:45;12.23;;;8.70;;
15764;SDS011;7983;50.744;7.086;2023-01-29T04:13:13;14.77;;;10.20;;
15764;SDS011;7983;50.744;7.086;2023-01-29T04:15:48;15.43;;;10.20;;
15764;SDS011;7983;50.744;7.086;2023-01-29T04:18:19;14.87;;;10.53;;
15764;SDS011;7983;50.744;7.086;2023-01-29T04:20:50;16.77;;;11.00;;
15764;SDS011;7983;50.744;7.086;2023-01-29T04:23:20;15.60;;;10.63;;
15764;SDS011;7983;50.744;7.086;2023-01-29T04:28:42;14.37;;;10.17;;
15764;SDS011;7983;50.744;7.086;2023-01-29T04:31:09;14.23;;;10.03;;
15764;SDS011;7983;50.744;7.086;2023-01-29T04:39:26;12.97;;;9.27;;
15764;SDS011;7983;50.744;7.086;2023-01-29T04:42:20;12.33;;;8.53;;
15764;SDS011;7983;50.744;7.086;2023-01-29T04:58:48;13.60;;;9.07;;
15764;SDS011;7983;50.744;7.086;2023-01-29T05:01:23;15.20;;;9.93;;
15764;SDS011;7983;50.744;7.086;2023-01-29T05:03:54;17.57;;;10.70;;
15764;SDS011;7983;50.744;7.086;2023-01-29T05:06:21;14.77;;;10.20;;
15764;SDS011;7983;50.744;7.086;2023-01-29T05:08:50;18.10;;;11.17;;
15764;SDS011;7983;50.744;7.086;2023-01-29T05:11:16;17.63;;;11.40;;
15764;SDS011;7983;50.744;7.086;2023-01-29T05:13:44;16.43;;;11.00;;
15764;SDS011;7983;50.744;7.086;2023-01-29T05:18:49;14.73;;;10.03;;
15764;SDS011;7983;50.744;7.086;2023-01-29T05:21:16;14.20;;;10.23;;
15764;SDS011;7983;50.744;7.086;2023-01-29T05:23:42;14.90;;;9.97;;
15764;SDS011;7983;50.744;7.086;2023-01-29T05:26:18;14.13;;;9.83;;
15764;SDS011;7983;50.744;7.086;2023-01-29T05:29:03;14.07;;;9.37;;
15764;SDS011;7983;50.744;7.086;2023-01-29T05:31:34;13.93;;;8.80;;
15764;SDS011;7983;50.744;7.086;2023-01-29T05:34:02;15.00;;;10.07;;
15764;SDS011;7983;50.744;7.086;2023-01-29T05:36:27;16.93;;;10.50;;
15764;SDS011;7983;50.744;7.086;2023-01-29T05:38:53;17.40;;;10.57;;
15764;SDS011;7983;50.744;7.086;2023-01-29T05:41:23;17.93;;;11.33;;
15764;SDS011;7983;50.744;7.086;2023-01-29T05:43:51;17.40;;;11.70;;
15764;SDS011;7983;50.744;7.086;2023-01-29T05:46:17;18.13;;;11.23;;
15764;SDS011;7983;50.744;7.086;2023-01-29T05:48:42;17.53;;;11.37;;
15764;SDS011;7983;50.744;7.086;2023-01-29T05:51:08;19.30;;;12.30;;
15764;SDS011;7983;50.744;7.086;2023-01-29T05:53:36;17.37;;;11.13;;
15764;SDS011;7983;50.744;7.086;2023-01-29T05:56:02;15.77;;;10.20;;
15764;SDS011;7983;50.744;7.086;2023-01-29T05:58:32;16.17;;;10.90;;
15764;SDS011;7983;50.744;7.086;2023-01-29T06:01:07;17.10;;;10.70;;
15764;SDS011;7983;50.744;7.086;2023-01-29T06:03:40;15.37;;;10.20;;
15764;SDS011;7983;50.744;7.086;2023-01-29T06:06:06;15.70;;;10.63;;
15764;SDS011;7983;50.744;7.086;2023-01-29T06:08:34;16.40;;;10.70;;
15764;SDS011;7983;50.744;7.086;2023-01-29T06:11:02;17.87;;;11.17;;
15764;SDS011;7983;50.744;7.086;2023-01-29T06:13:34;14.93;;;10.33;;
15764;SDS011;7983;50.744;7.086;2023-01-29T06:16:03;14.73;;;9.53;;
15764;SDS011;7983;50.744;7.086;2023-01-29T06:18:29;14.63;;;9.47;;
15764;SDS011;7983;50.744;7.086;2023-01-29T06:21:01;15.10;;;9.97;;
15764;SDS011;7983;50.744;7.086;2023-01-29T06:23:33;15.00;;;10.30;;
15764;SDS011;7983;50.744;7.086;2023-01-29T06:26:00;14.43;;;10.10;;
15764;SDS011;7983;50.744;7.086;2023-01-29T06:28:26;14.20;;;10.00;;
15764;SDS011;7983;50.744;7.086;2023-01-29T06:30:52;19.07;;;11.37;;
15764;SDS011;7983;50.744;7.086;2023-01-29T06:33:22;16.90;;;10.33;;
15764;SDS011;7983;50.744;7.086;2023-01-29T06:35:54;17.63;;;11.33;;
15764;SDS011;7983;50.744;7.086;2023-01-29T06:38:31;17.20;;;11.07;;
15764;SDS011;7983;50.744;7.086;2023-01-29T06:40:57;17.50;;;10.57;;
15764;SDS011;7983;50.744;7.086;2023-01-29T06:43:23;15.60;;;10.33;;
15764;SDS011;7983;50.744;7.086;2023-01-29T06:45:53;15.43;;;10.73;;
15764;SDS011;7983;50.744;7.086;2023-01-29T06:48:22;16.30;;;10.30;;
15764;SDS011;7983;50.744;7.086;2023-01-29T06:50:48;16.97;;;10.73;;
15764;SDS011;7983;50.744;7.086;2023-01-29T06:53:15;17.63;;;11.33;;
15764;SDS011;7983;50.744;7.086;2023-01-29T06:55:51;20.30;;;11.23;;
15764;SDS011;7983;50.744;7.086;2023-01-29T06:58:22;16.07;;;10.70;;
15764;SDS011;7983;50.744;7.086;2023-01-29T07:00:50;17.57;;;11.17;;
15764;SDS011;7983;50.744;7.086;2023-01-29T07:03:18;16.60;;;11.23;;
15764;SDS011;7983;50.744;7.086;2023-01-29T07:05:49;17.30;;;11.47;;
15764;SDS011;7983;50.744;7.086;2023-01-29T07:08:16;20.93;;;13.23;;
15764;SDS011;7983;50.744;7.086;2023-01-29T07:10:41;21.07;;;13.57;;
15764;SDS011;7983;50.744;7.086;2023-01-29T07:13:07;19.83;;;13.27;;
15764;SDS011;7983;50.744;7.086;2023-01-29T07:15:32;19.37;;;13.17;;
15764;SDS011;7983;50.744;7.086;2023-01-29T07:17:59;21.43;;;13.77;;
15764;SDS011;7983;50.744;7.086;2023-01-29T07:20:26;20.07;;;13.07;;
15764;SDS011;7983;50.744;7.086;2023-01-29T07:22:53;17.37;;;11.70;;
15764;SDS011;7983;50.744;7.086;2023-01-29T07:25:20;16.33;;;11.27;;
15764;SDS011;7983;50.744;7.086;2023-01-29T07:27:46;16.03;;;11.00;;
15764;SDS011;7983;50.744;7.086;2023-01-29T07:30:12;16.03;;;11.07;;
15764;SDS011;7983;50.744;7.086;2023-01-29T07:32:38;15.50;;;10.53;;
15764;SDS011;7983;50.744;7.086;2023-01-29T07:35:04;15.90;;;10.40;;
15764;SDS011;7983;50.744;7.086;2023-01-29T07:37:30;16.00;;;10.00;;
15764;SDS011;7983;50.744;7.086;2023-01-29T07:39:58;15.40;;;10.23;;
15764;SDS011;7983;50.744;7.086;2023-01-29T07:42:28;16.87;;;11.50;;
15764;SDS011;7983;50.744;7.086;2023-01-29T07:44:54;16.13;;;10.40;;
15764;SDS011;7983;50.744;7.086;2023-01-29T07:47:20;16.13;;;11.73;;
15764;SDS011;7983;50.744;7.086;2023-01-29T07:49:45;17.27;;;11.10;;
15764;SDS011;7983;50.744;7.086;2023-01-29T07:52:15;18.00;;;11.87;;
15764;SDS011;7983;50.744;7.086;2023-01-29T07:54:42;16.67;;;11.07;;
15764;SDS011;7983;50.744;7.086;2023-01-29T07:57:10;17.27;;;11.70;;
15764;SDS011;7983;50.744;7.086;2023-01-29T07:59:36;15.77;;;11.43;;
15764;SDS011;7983;50.744;7.086;2023-01-29T08:02:02;17.43;;;11.50;;
15764;SDS011;7983;50.744;7.086;2023-01-29T08:04:30;18.80;;;11.83;;
15764;SDS011;7983;50.744;7.086;2023-01-29T08:06:55;18.10;;;11.50;;
15764;SDS011;7983;50.744;7.086;2023-01-29T08:09:21;15.27;;;10.70;;
15764;SDS011;7983;50.744;7.086;2023-01-29T08:11:47;17.70;;;11.93;;
15764;SDS011;7983;50.744;7.086;2023-01-29T08:14:14;16.70;;;11.57;;
15764;SDS011;7983;50.744;7.086;2023-01-29T08:16:42;18.23;;;12.87;;
15764;SDS011;7983;50.744;7.086;2023-01-29T08:19:08;18.97;;;13.37;;
15764;SDS011;7983;50.744;7.086;2023-01-29T08:21:33;19.83;;;13.40;;
15764;SDS011;7983;50.744;7.086;2023-01-29T08:23:59;20.13;;;12.87;;
15764;SDS011;7983;50.744;7.086;2023-01-29T08:26:24;18.17;;;12.67;;
15764;SDS011;7983;50.744;7.086;2023-01-29T08:28:52;16.67;;;11.53;;
15764;SDS011;7983;50.744;7.086;2023-01-29T08:31:20;19.03;;;12.67;;
15764;SDS011;7983;50.744;7.086;2023-01-29T08:33:47;17.37;;;11.83;;
15764;SDS011;7983;50.744;7.086;2023-01-29T08:36:13;17.63;;;11.97;;
15764;SDS011;7983;50.744;7.086;2023-01-29T08:38:39;17.33;;;12.57;;
15764;SDS011;7983;50.744;7.086;2023-01-29T08:41:05;16.97;;;11.77;;
15764;SDS011;7983;50.744;7.086;2023-01-29T08:43:31;16.23;;;11.63;;
15764;SDS011;7983;50.744;7.086;2023-01-29T08:45:57;18.00;;;12.77;;
15764;SDS011;7983;50.744;7.086;2023-01-29T08:48:23;18.33;;;12.93;;
15764;SDS011;7983;50.744;7.086;2023-01-29T08:50:49;19.03;;;12.60;;
15764;SDS011;7983;50.744;7.086;2023-01-29T08:53:23;19.37;;;12.67;;
15764;SDS011;7983;50.744;7.086;2023-01-29T08:55:53;19.87;;;13.07;;
15764;SDS011;7983;50.744;7.086;2023-01-29T08:58:21;20.23;;;13.80;;
15764;SDS011;7983;50.744;7.086;2023-01-29T09:00:47;18.57;;;13.13;;
15764;SDS011;7983;50.744;7.086;2023-01-29T09:03:13;21.10;;;14.13;;
15764;SDS011;7983;50.744;7.086;2023-01-29T09:05:39;18.73;;;13.00;;
15764;SDS011;7983;50.744;7.086;2023-01-29T09:08:05;18.47;;;12.83;;
15764;SDS011;7983;50.744;7.086;2023-01-29T09:10:32;18.67;;;13.40;;
15764;SDS011;7983;50.744;7.086;2023-01-29T09:12:58;17.53;;;12.73;;
15764;SDS011;7983;50.744;7.086;2023-01-29T09:15:27;19.03;;;13.97;;
15764;SDS011;7983;50.744;7.086;2023-01-29T09:17:57;20.23;;;14.20;;
15764;SDS011;7983;50.744;7.086;2023-01-29T09:20:26;20.67;;;14.50;;
15764;SDS011;7983;50.744;7.086;2023-01-29T09:22:52;21.77;;;14.20;;
15764;SDS011;7983;50.744;7.086;2023-01-29T09:25:20;20.30;;;14.27;;
15764;SDS011;7983;50.744;7.086;2023-01-29T09:27:48;21.10;;;14.57;;
15764;SDS011;7983;50.744;7.086;2023-01-29T09:30:17;20.97;;;14.07;;
15764;SDS011;7983;50.744;7.086;2023-01-29T09:32:45;19.17;;;13.60;;
15764;SDS011;7983;50.744;7.086;2023-01-29T09:35:13;19.17;;;13.70;;
15764;SDS011;7983;50.744;7.086;2023-01-29T09:37:41;18.87;;;12.40;;
15764;SDS011;7983;50.744;7.086;2023-01-29T09:40:09;22.57;;;14.90;;
15764;SDS011;7983;50.744;7.086;2023-01-29T09:42:57;22.13;;;15.33;;
15764;SDS011;7983;50.744;7.086;2023-01-29T09:45:36;23.70;;;15.97;;
15764;SDS011;7983;50.744;7.086;2023-01-29T09:48:10;25.57;;;16.53;;
15764;SDS011;7983;50.744;7.086;2023-01-29T09:50:38;21.50;;;15.07;;
15764;SDS011;7983;50.744;7.086;2023-01-29T09:55:49;20.47;;;13.70;;
15764;SDS011;7983;50.744;7.086;2023-01-29T09:58:24;21.07;;;14.57;;
15764;SDS011;7983;50.744;7.086;2023-01-29T10:04:02;20.87;;;14.57;;
15764;SDS011;7983;50.744;7.086;2023-01-29T10:23:23;19.33;;;13.93;;
15764;SDS011;7983;50.744;7.086;2023-01-29T10:25:58;24.23;;;16.33;;
15764;SDS011;7983;50.744;7.086;2023-01-29T10:30:53;27.20;;;16.73;;
15764;SDS011;7983;50.744;7.086;2023-01-29T10:36:18;22.90;;;15.53;;
15764;SDS011;7983;50.744;7.086;2023-01-29T10:39:15;21.37;;;15.10;;
15764;SDS011;7983;50.744;7.086;2023-01-29T10:52:39;16.60;;;12.10;;
15764;SDS011;7983;50.744;7.086;2023-01-29T11:01:03;16.33;;;12.40;;
15764;SDS011;7983;50.744;7.086;2023-01-29T11:03:31;17.43;;;12.23;;
15764;SDS011;7983;50.744;7.086;2023-01-29T11:11:43;18.63;;;13.33;;
15764;SDS011;7983;50.744;7.086;2023-01-29T11:14:25;18.80;;;13.30;;
15764;SDS011;7983;50.744;7.086;2023-01-29T11:16:53;16.97;;;12.90;;
15764;SDS011;7983;50.744;7.086;2023-01-29T11:19:36;16.77;;;12.23;;
15764;SDS011;7983;50.744;7.086;2023-01-29T11:22:04;17.57;;;12.57;;
15764;SDS011;7983;50.744;7.086;2023-01-29T11:24:33;18.27;;;13.73;;
15764;SDS011;7983;50.744;7.086;2023-01-29T11:26:58;16.03;;;12.80;;
15764;SDS011;7983;50.744;7.086;2023-01-29T11:31:58;16.20;;;12.23;;
15764;SDS011;7983;50.744;7.086;2023-01-29T11:34:31;16.37;;;12.27;;
15764;SDS011;7983;50.744;7.086;2023-01-29T11:37:03;18.87;;;13.33;;
15764;SDS011;7983;50.744;7.086;2023-01-29T11:39:42;17.83;;;13.33;;
15764;SDS011;7983;50.744;7.086;2023-01-29T11:42:17;17.30;;;12.90;;
15764;SDS011;7983;50.744;7.086;2023-01-29T11:44:44;17.73;;;13.13;;
15764;SDS011;7983;50.744;7.086;2023-01-29T11:49:47;19.87;;;14.13;;
15764;SDS011;7983;50.744;7.086;2023-01-29T11:52:18;19.17;;;14.10;;
15764;SDS011;7983;50.744;7.086;2023-01-29T11:59:59;18.97;;;14.40;;
15764;SDS011;7983;50.744;7.086;2023-01-29T12:02:41;18.83;;;14.63;;
15764;SDS011;7983;50.744;7.086;2023-01-29T12:05:15;19.47;;;14.20;;
15764;SDS011;7983;50.744;7.086;2023-01-29T12:07:47;19.33;;;14.03;;
15764;SDS011;7983;50.744;7.086;2023-01-29T12:10:31;18.40;;;14.27;;
15764;SDS011;7983;50.744;7.086;2023-01-29T12:15:35;17.10;;;13.00;;
15764;SDS011;7983;50.744;7.086;2023-01-29T12:18:07;16.97;;;13.47;;
15764;SDS011;7983;50.744;7.086;2023-01-29T12:20:39;16.57;;;12.80;;
15764;SDS011;7983;50.744;7.086;2023-01-29T12:26:07;17.07;;;13.03;;
15764;SDS011;7983;50.744;7.086;2023-01-29T12:34:03;18.83;;;14.70;;
15764;SDS011;7983;50.744;7.086;2023-01-29T12:36:48;16.20;;;13.37;;
15764;SDS011;7983;50.744;7.086;2023-01-29T12:39:19;19.33;;;14.67;;
15764;SDS011;7983;50.744;7.086;2023-01-29T12:47:11;15.57;;;13.00;;
15764;SDS011;7983;50.744;7.086;2023-01-29T12:49:49;16.90;;;13.27;;
15764;SDS011;7983;50.744;7.086;2023-01-29T12:52:20;16.10;;;12.70;;
15764;SDS011;7983;50.744;7.086;2023-01-29T12:55:10;16.63;;;13.03;;
15764;SDS011;7983;50.744;7.086;2023-01-29T12:57:49;16.10;;;12.43;;
15764;SDS011;7983;50.744;7.086;2023-01-29T13:00:19;17.03;;;13.73;;
15764;SDS011;7983;50.744;7.086;2023-01-29T13:05:32;16.97;;;13.03;;
15764;SDS011;7983;50.744;7.086;2023-01-29T13:08:18;17.40;;;13.20;;
15764;SDS011;7983;50.744;7.086;2023-01-29T13:10:49;18.67;;;13.47;;
15764;SDS011;7983;50.744;7.086;2023-01-29T13:13:26;15.57;;;13.00;;
15764;SDS011;7983;50.744;7.086;2023-01-29T13:15:55;17.73;;;13.60;;
15764;SDS011;7983;50.744;7.086;2023-01-29T13:21:17;17.30;;;13.23;;
15764;SDS011;7983;50.744;7.086;2023-01-29T13:23:47;17.47;;;13.60;;
15764;SDS011;7983;50.744;7.086;2023-01-29T13:26:16;17.43;;;13.17;;
15764;SDS011;7983;50.744;7.086;2023-01-29T13:28:45;17.50;;;14.07;;
15764;SDS011;7983;50.744;7.086;2023-01-29T13:36:52;17.37;;;13.73;;
15764;SDS011;7983;50.744;7.086;2023-01-29T13:39:34;18.97;;;14.80;;
15764;SDS011;7983;50.744;7.086;2023-01-29T13:42:02;17.33;;;13.77;;
15764;SDS011;7983;50.744;7.086;2023-01-29T13:44:46;14.43;;;11.37;;
15764;SDS011;7983;50.744;7.086;2023-01-29T13:47:24;14.20;;;10.30;;
15764;SDS011;7983;50.744;7.086;2023-01-29T13:49:53;14.07;;;9.80;;
15764;SDS011;7983;50.744;7.086;2023-01-29T13:54:59;10.73;;;7.80;;
15764;SDS011;7983;50.744;7.086;2023-01-29T13:57:44;10.53;;;7.90;;
15764;SDS011;7983;50.744;7.086;2023-01-29T14:02:45;10.83;;;8.20;;
15764;SDS011;7983;50.744;7.086;2023-01-29T14:10:25;11.97;;;9.00;;
15764;SDS011;7983;50.744;7.086;2023-01-29T14:12:53;14.67;;;9.10;;
15764;SDS011;7983;50.744;7.086;2023-01-29T14:15:41;11.13;;;8.50;;
15764;SDS011;7983;50.744;7.086;2023-01-29T14:18:27;11.40;;;8.80;;
15764;SDS011;7983;50.744;7.086;2023-01-29T14:20:56;16.20;;;11.13;;
15764;SDS011;7983;50.744;7.086;2023-01-29T14:23:32;13.53;;;10.53;;
15764;SDS011;7983;50.744;7.086;2023-01-29T14:26:23;13.97;;;10.57;;
15764;SDS011;7983;50.744;7.086;2023-01-29T14:31:59;12.07;;;8.93;;
15764;SDS011;7983;50.744;7.086;2023-01-29T14:34:34;11.50;;;8.47;;
15764;SDS011;7983;50.744;7.086;2023-01-29T14:39:44;12.30;;;9.27;;
15764;SDS011;7983;50.744;7.086;2023-01-29T14:45:06;11.43;;;9.10;;
15764;SDS011;7983;50.744;7.086;2023-01-29T14:49:58;11.77;;;8.87;;
15764;SDS011;7983;50.744;7.086;2023-01-29T14:52:44;10.83;;;8.27;;
15764;SDS011;7983;50.744;7.086;2023-01-29T14:55:21;10.90;;;8.43;;
15764;SDS011;7983;50.744;7.086;2023-01-29T14:57:56;10.97;;;8.37;;
15764;SDS011;7983;50.744;7.086;2023-01-29T15:00:25;10.80;;;7.97;;
15764;SDS011;7983;50.744;7.086;2023-01-29T15:02:56;9.60;;;7.73;;
15764;SDS011;7983;50.744;7.086;2023-01-29T15:05:26;10.17;;;7.33;;
15764;SDS011;7983;50.744;7.086;2023-01-29T15:18:37;6.33;;;5.17;;
15764;SDS011;7983;50.744;7.086;2023-01-29T15:21:11;6.57;;;5.07;;
15764;SDS011;7983;50.744;7.086;2023-01-29T15:23:43;5.63;;;4.63;;
15764;SDS011;7983;50.744;7.086;2023-01-29T15:26:21;7.00;;;4.93;;
15764;SDS011;7983;50.744;7.086;2023-01-29T15:28:57;9.27;;;5.87;;
15764;SDS011;7983;50.744;7.086;2023-01-29T15:31:24;7.37;;;5.50;;
15764;SDS011;7983;50.744;7.086;2023-01-29T15:33:51;7.27;;;5.23;;
15764;SDS011;7983;50.744;7.086;2023-01-29T15:36:27;6.40;;;4.80;;
15764;SDS011;7983;50.744;7.086;2023-01-29T15:41:36;7.50;;;5.27;;
15764;SDS011;7983;50.744;7.086;2023-01-29T15:44:15;6.43;;;5.10;;
15764;SDS011;7983;50.744;7.086;2023-01-29T15:46:44;8.43;;;5.50;;
15764;SDS011;7983;50.744;7.086;2023-01-29T15:49:32;11.20;;;7.67;;
15764;SDS011;7983;50.744;7.086;2023-01-29T15:52:19;12.40;;;8.13;;
15764;SDS011;7983;50.744;7.086;2023-01-29T15:54:49;13.50;;;8.90;;
15764;SDS011;7983;50.744;7.086;2023-01-29T15:57:22;12.07;;;8.27;;
15764;SDS011;7983;50.744;7.086;2023-01-29T15:59:53;14.47;;;8.63;;
15764;SDS011;7983;50.744;7.086;2023-01-29T16:05:24;13.03;;;8.57;;
15764;SDS011;7983;50.744;7.086;2023-01-29T16:07:53;12.90;;;8.97;;
15764;SDS011;7983;50.744;7.086;2023-01-29T16:10:20;14.47;;;8.87;;
15764;SDS011;7983;50.744;7.086;2023-01-29T16:12:48;13.00;;;8.20;;
15764;SDS011;7983;50.744;7.086;2023-01-29T16:18:26;13.97;;;8.73;;
15764;SDS011;7983;50.744;7.086;2023-01-29T16:21:09;13.90;;;8.63;;
15764;SDS011;7983;50.744;7.086;2023-01-29T16:23:49;12.57;;;8.67;;
15764;SDS011;7983;50.744;7.086;2023-01-29T16:26:23;14.20;;;8.37;;
15764;SDS011;7983;50.744;7.086;2023-01-29T16:28:54;15.20;;;9.80;;
15764;SDS011;7983;50.744;7.086;2023-01-29T16:31:27;16.47;;;9.50;;
15764;SDS011;7983;50.744;7.086;2023-01-29T16:33:58;13.67;;;9.53;;
15764;SDS011;7983;50.744;7.086;2023-01-29T16:36:32;14.90;;;9.57;;
15764;SDS011;7983;50.744;7.086;2023-01-29T16:39:03;16.27;;;10.10;;
15764;SDS011;7983;50.744;7.086;2023-01-29T16:41:36;15.87;;;10.20;;
15764;SDS011;7983;50.744;7.086;2023-01-29T16:44:03;17.53;;;10.90;;
15764;SDS011;7983;50.744;7.086;2023-01-29T16:47:44;14.90;;;9.33;;
15764;SDS011;7983;50.744;7.086;2023-01-29T16:49:59;14.30;;;9.43;;
15764;SDS011;7983;50.744;7.086;2023-01-29T16:52:54;14.47;;;9.07;;
15764;SDS011;7983;50.744;7.086;2023-01-29T16:55:24;14.40;;;8.97;;
15764;SDS011;7983;50.744;7.086;2023-01-29T16:57:51;15.63;;;9.47;;
15764;SDS011;7983;50.744;7.086;2023-01-29T17:00:19;17.53;;;10.93;;
15764;SDS011;7983;50.744;7.086;2023-01-29T17:02:55;20.97;;;12.57;;
15764;SDS011;7983;50.744;7.086;2023-01-29T17:05:27;16.40;;;10.60;;
15764;SDS011;7983;50.744;7.086;2023-01-29T17:07:57;18.43;;;12.20;;
15764;SDS011;7983;50.744;7.086;2023-01-29T17:10:24;19.83;;;12.67;;
15764;SDS011;7983;50.744;7.086;2023-01-29T17:12:55;18.03;;;11.83;;
15764;SDS011;7983;50.744;7.086;2023-01-29T17:17:58;15.63;;;9.97;;
15764;SDS011;7983;50.744;7.086;2023-01-29T17:20:23;17.37;;;11.50;;
15764;SDS011;7983;50.744;7.086;2023-01-29T17:22:51;16.27;;;10.43;;
15764;SDS011;7983;50.744;7.086;2023-01-29T17:25:17;17.27;;;10.80;;
15764;SDS011;7983;50.744;7.086;2023-01-29T17:27:45;17.20;;;11.30;;
15764;SDS011;7983;50.744;7.086;2023-01-29T17:30:19;17.90;;;10.87;;
15764;SDS011;7983;50.744;7.086;2023-01-29T17:32:54;16.43;;;10.83;;
15764;SDS011;7983;50.744;7.086;2023-01-29T17:35:20;15.47;;;9.87;;
15764;SDS011;7983;50.744;7.086;2023-01-29T17:37:46;16.43;;;10.77;;
15764;SDS011;7983;50.744;7.086;2023-01-29T17:40:15;19.03;;;10.60;;
15764;SDS011;7983;50.744;7.086;2023-01-29T17:42:58;16.40;;;10.03;;
15764;SDS011;7983;50.744;7.086;2023-01-29T17:45:23;15.77;;;10.47;;
15764;SDS011;7983;50.744;7.086;2023-01-29T17:47:49;15.90;;;10.23;;
15764;SDS011;7983;50.744;7.086;2023-01-29T17:50:16;17.70;;;10.40;;
15764;SDS011;7983;50.744;7.086;2023-01-29T17:52:47;15.40;;;9.90;;
15764;SDS011;7983;50.744;7.086;2023-01-29T17:55:17;16.07;;;10.03;;
15764;SDS011;7983;50.744;7.086;2023-01-29T17:57:45;14.93;;;10.30;;
15764;SDS011;7983;50.744;7.086;2023-01-29T18:00:15;15.37;;;9.47;;
15764;SDS011;7983;50.744;7.086;2023-01-29T18:02:41;14.17;;;9.57;;
15764;SDS011;7983;50.744;7.086;2023-01-29T18:05:09;16.10;;;9.90;;
15764;SDS011;7983;50.744;7.086;2023-01-29T18:07:38;14.03;;;9.23;;
15764;SDS011;7983;50.744;7.086;2023-01-29T18:10:10;14.23;;;8.90;;
15764;SDS011;7983;50.744;7.086;2023-01-29T18:12:41;13.47;;;9.20;;
15764;SDS011;7983;50.744;7.086;2023-01-29T18:15:33;11.27;;;8.10;;
15764;SDS011;7983;50.744;7.086;2023-01-29T18:17:58;12.80;;;9.03;;
15764;SDS011;7983;50.744;7.086;2023-01-29T18:20:24;14.57;;;9.50;;
15764;SDS011;7983;50.744;7.086;2023-01-29T18:22:52;12.03;;;8.30;;
15764;SDS011;7983;50.744;7.086;2023-01-29T18:25:20;13.27;;;9.03;;